Аэропорт: Казань. Казань

ICAO: UWKD

METAR:
2019/05/26 14:00
UWKD 261400Z 14003MPS CAVOK 20/02 Q1010 R11/CLRD70 NOSIG RMK QFE748/0997
METAR:
2019/05/26 12:21
TAF UWKD 261100Z 2612/2712 18005G12MPS 9999 BKN025 TX22/2711Z TN12/2701Z 
      TEMPO 2612/2618 17008G15MPS BKN020 
      TEMPO 2618/2706 5000 -TSRA BKN012 BKN020CB